createdAt,value
2018-06-01T00:02:35.346Z,40.00
2018-06-01T00:17:35.129Z,39.85
2018-06-01T00:32:37.124Z,40.00
2018-06-01T00:47:33.948Z,39.71
2018-06-01T01:02:34.514Z,39.81
2018-06-01T01:17:34.511Z,39.96
2018-06-01T01:32:33.941Z,39.84
2018-06-01T01:47:34.707Z,40.13
2018-06-01T02:02:35.012Z,40.27
2018-06-01T02:17:36.687Z,40.25
2018-06-01T02:32:34.695Z,40.53
2018-06-01T02:47:35.076Z,40.82
2018-06-01T03:02:35.589Z,42.12
2018-06-01T03:17:38.379Z,45.78
2018-06-01T03:32:35.251Z,47.79
2018-06-01T03:47:37.360Z,47.66
2018-06-01T04:02:35.021Z,46.69
2018-06-01T04:17:36.168Z,45.25
2018-06-01T04:32:36.920Z,43.87
2018-06-01T04:47:34.882Z,42.59
2018-06-01T05:02:34.856Z,41.28
2018-06-01T05:17:34.843Z,40.01
2018-06-01T05:32:34.863Z,39.00
2018-06-01T05:47:35.156Z,37.38
2018-06-01T06:02:35.498Z,35.30
2018-06-01T06:17:35.159Z,33.09
2018-06-01T06:32:35.166Z,31.71
2018-06-01T06:47:35.463Z,30.41
2018-06-01T07:02:34.935Z,29.69
2018-06-01T07:17:37.446Z,28.73
2018-06-01T07:32:35.488Z,28.68
2018-06-01T07:47:34.749Z,28.68
2018-06-01T08:02:34.760Z,27.32
2018-06-01T08:17:34.763Z,26.35
2018-06-01T08:32:34.761Z,25.58
2018-06-01T08:47:35.139Z,22.78
2018-06-01T09:02:35.079Z,24.15
2018-06-01T09:17:35.078Z,23.54
2018-06-01T09:32:35.064Z,23.66
2018-06-01T09:47:35.361Z,23.11
2018-06-01T10:02:35.339Z,22.58
2018-06-01T10:17:35.341Z,22.52
2018-06-01T10:32:35.407Z,19.58
2018-06-01T10:47:34.192Z,20.28
2018-06-01T11:02:34.665Z,20.22
2018-06-01T11:17:34.701Z,21.50
2018-06-01T11:32:34.694Z,20.72
2018-06-01T11:47:36.455Z,21.30
2018-06-01T12:02:35.040Z,22.88
2018-06-01T12:17:35.061Z,23.23
2018-06-01T12:32:34.949Z,24.48
2018-06-01T12:47:35.301Z,25.40
2018-06-01T13:02:35.276Z,26.66
2018-06-01T13:17:35.318Z,27.42
2018-06-01T13:32:35.329Z,28.67
2018-06-01T13:47:35.222Z,31.44
2018-06-01T14:02:34.990Z,32.06
2018-06-01T14:17:34.664Z,33.32
2018-06-01T14:32:34.624Z,33.74
2018-06-01T14:47:36.905Z,33.15
2018-06-01T15:02:34.963Z,33.78
2018-06-01T15:17:34.902Z,34.29
2018-06-01T15:32:34.943Z,34.84
2018-06-01T15:47:35.251Z,35.90
2018-06-01T16:02:35.264Z,36.38
2018-06-01T16:17:35.287Z,36.73
2018-06-01T16:32:35.358Z,37.69
2018-06-01T16:47:34.605Z,39.23
2018-06-01T17:02:34.573Z,38.60
2018-06-01T17:17:34.616Z,39.89
2018-06-01T17:32:34.657Z,41.72
2018-06-01T17:47:35.072Z,41.54
2018-06-01T18:02:34.931Z,42.23
2018-06-01T18:17:34.910Z,44.01
2018-06-01T18:32:36.676Z,44.17
2018-06-01T18:47:35.252Z,43.99
2018-06-01T19:02:35.255Z,42.69
2018-06-01T19:17:35.061Z,43.74
2018-06-01T19:32:35.028Z,44.83
2018-06-01T19:47:34.425Z,47.36
2018-06-01T20:02:36.640Z,44.71
2018-06-01T20:17:34.455Z,43.99
2018-06-01T20:32:34.668Z,43.34
2018-06-01T20:47:34.900Z,42.66
2018-06-01T21:02:34.996Z,42.57
2018-06-01T21:17:34.730Z,43.09
2018-06-01T21:32:34.280Z,43.48
2018-06-01T21:47:35.065Z,43.42
2018-06-01T22:02:35.277Z,43.70
2018-06-01T22:17:35.086Z,44.11
2018-06-01T22:32:34.025Z,44.24
2018-06-01T22:47:36.403Z,44.45
2018-06-01T23:02:36.143Z,44.64
2018-06-01T23:17:34.372Z,44.42
2018-06-01T23:32:34.439Z,43.86
2018-06-01T23:47:37.212Z,43.56
